Time;durP1;ratioP1;P1;durP2;ratioP2;P2;SDS_P1;SDS_P2;PMS_P1;PMS_P2;Temp;Humidity;BMP_temperature;BMP_pressure;BME280_temperature;BME280_humidity;BME280_pressure;Samples;Min_cycle;Max_cycle;Signal;HPM_P1;HPM_P2
2022/08/30 00:02:33;;;;;;;19.05;8.63;;;;;;;21.98;75.97;98845.13;5085501;28;20036;-59
2022/08/30 00:05:00;;;;;;;16.15;9.25;;;;;;;22.04;75.57;98837.53;5094583;28;20269;-58
2022/08/30 00:07:26;;;;;;;22.15;8.73;;;;;;;22.10;75.09;98838.00;5101229;28;20028;-60
2022/08/30 00:09:52;;;;;;;14.55;8.15;;;;;;;22.02;75.91;98836.81;5093567;28;20325;-60
2022/08/30 00:12:19;;;;;;;19.35;9.30;;;;;;;22.04;75.98;98834.06;5084999;28;20055;-59
2022/08/30 00:14:46;;;;;;;17.42;8.95;;;;;;;22.10;75.44;98835.34;5084716;28;20031;-59
2022/08/30 00:17:12;;;;;;;18.98;8.02;;;;;;;22.07;75.27;98833.78;5084843;28;20062;-60
2022/08/30 00:19:38;;;;;;;18.58;9.55;;;;;;;22.14;75.49;98831.50;5084661;28;20092;-57
2022/08/30 00:22:05;;;;;;;12.88;7.70;;;;;;;22.16;75.43;98835.69;5096874;28;20031;-58
2022/08/30 00:24:31;;;;;;;17.48;8.80;;;;;;;22.15;75.67;98827.91;5096123;28;20036;-58
2022/08/30 00:26:56;;;;;;;15.00;7.57;;;;;;;22.18;75.34;98835.56;5084511;28;20020;-58
2022/08/30 00:29:22;;;;;;;20.17;8.70;;;;;;;22.17;75.51;98834.69;5084344;28;20020;-58
2022/08/30 00:31:48;;;;;;;16.45;7.93;;;;;;;22.24;75.03;98835.84;5084378;28;20036;-57
2022/08/30 00:34:15;;;;;;;13.43;7.65;;;;;;;22.14;75.62;98821.78;5083335;28;20028;-58
2022/08/30 00:36:42;;;;;;;18.55;8.52;;;;;;;22.16;75.38;98833.03;5084323;28;20301;-57
2022/08/30 00:39:07;;;;;;;20.05;9.60;;;;;;;22.15;75.74;98838.44;5082727;28;20020;-58
2022/08/30 00:41:33;;;;;;;17.65;8.63;;;;;;;22.17;75.38;98836.50;5084019;28;20044;-58
2022/08/30 00:43:59;;;;;;;13.70;8.00;;;;;;;22.12;76.02;98830.78;5084215;28;20364;-58
2022/08/30 00:46:25;;;;;;;15.00;8.85;;;;;;;22.13;75.85;98820.09;5084029;28;20029;-57
2022/08/30 00:48:51;;;;;;;13.18;8.63;;;;;;;22.10;75.91;98820.34;5084346;28;20088;-58
2022/08/30 00:51:20;;;;;;;14.65;8.80;;;;;;;22.13;75.71;98820.09;5090445;28;20024;-59
2022/08/30 00:53:49;;;;;;;13.90;7.93;;;;;;;21.97;76.44;98812.63;5104170;28;20016;-59
2022/08/30 00:56:17;;;;;;;19.45;8.43;;;;;;;22.03;76.44;98827.97;5086759;28;20044;-58
2022/08/30 00:58:46;;;;;;;18.98;9.50;;;;;;;22.08;76.14;98832.00;5076028;28;20041;-59
2022/08/30 01:01:12;;;;;;;19.58;9.57;;;;;;;22.02;76.02;98813.09;5076478;28;20059;-59
2022/08/30 01:03:39;;;;;;;18.42;7.97;;;;;;;22.09;76.00;98825.75;5072995;28;20043;-58
2022/08/30 01:06:06;;;;;;;17.92;9.20;;;;;;;22.04;76.43;98826.97;5083529;28;20194;-58
2022/08/30 01:08:32;;;;;;;15.55;8.38;;;;;;;22.12;75.89;98823.72;5074876;28;20029;-58
2022/08/30 01:10:59;;;;;;;11.45;8.43;;;;;;;22.11;75.86;98819.41;5084000;28;20034;-57
2022/08/30 01:13:25;;;;;;;14.82;9.68;;;;;;;22.13;76.13;98820.09;5083750;28;20056;-60
2022/08/30 01:15:53;;;;;;;18.08;9.38;;;;;;;22.16;76.08;98824.28;5094690;28;20201;-58
2022/08/30 01:18:19;;;;;;;16.15;8.80;;;;;;;22.02;76.62;98812.25;5097303;28;20037;-59
2022/08/30 01:21:07;;;;;;;17.90;9.27;;;;;;;22.07;76.32;98807.44;5085345;28;20039;-59
2022/08/30 01:23:35;;;;;;;17.70;9.27;;;;;;;22.09;76.47;98809.94;5083468;28;20028;-59
2022/08/30 01:26:04;;;;;;;19.73;9.10;;;;;;;21.84;75.95;98770.63;5081886;28;20099;-59
2022/08/30 01:28:31;;;;;;;14.90;8.48;;;;;;;22.10;76.24;98807.16;5083390;28;20090;-58
2022/08/30 01:30:57;;;;;;;16.92;9.20;;;;;;;21.96;76.43;98800.44;5083478;28;20036;-59
2022/08/30 01:33:23;;;;;;;15.75;8.35;;;;;;;22.00;76.39;98809.72;5083457;28;20351;-58
2022/08/30 01:36:01;;;;;;;22.60;10.10;;;;;;;21.90;77.21;98800.91;5083536;28;20023;-58
2022/08/30 01:38:33;;;;;;;18.08;9.65;;;;;;;21.95;76.76;98808.44;5083464;28;20361;-58
2022/08/30 01:41:20;;;;;;;14.40;8.65;;;;;;;21.95;77.05;98805.81;5082327;28;20328;-59
2022/08/30 01:43:48;;;;;;;15.80;8.90;;;;;;;21.86;76.82;98786.31;5093478;28;20220;-59
2022/08/30 01:46:16;;;;;;;14.18;8.52;;;;;;;22.01;76.40;98805.31;5089945;28;20343;-59
2022/08/30 01:48:43;;;;;;;14.75;8.68;;;;;;;21.97;76.27;98804.72;5083214;28;20087;-60
2022/08/30 01:51:10;;;;;;;14.68;8.95;;;;;;;21.80;76.28;98765.75;5063167;28;20028;-60
2022/08/30 01:53:38;;;;;;;14.70;8.93;;;;;;;21.93;76.44;98791.91;5095720;28;20091;-60
2022/08/30 01:56:05;;;;;;;17.25;9.02;;;;;;;21.93;76.28;98802.47;5082837;28;20031;-60
2022/08/30 01:58:30;;;;;;;14.18;8.88;;;;;;;21.92;76.62;98803.41;5086045;28;20103;-59
2022/08/30 02:00:56;;;;;;;19.13;9.23;;;;;;;21.96;76.20;98810.13;5081166;28;20052;-59
2022/08/30 02:03:22;;;;;;;15.07;8.55;;;;;;;22.04;76.01;98807.69;5081968;28;20028;-59
2022/08/30 02:05:48;;;;;;;16.10;8.20;;;;;;;22.06;75.46;98813.66;5101317;28;20233;-60
2022/08/30 02:08:13;;;;;;;18.88;9.93;;;;;;;22.17;75.32;98818.03;5089509;28;20028;-60
2022/08/30 02:10:39;;;;;;;11.95;8.95;;;;;;;22.16;74.94;98811.09;5091996;28;20035;-61
2022/08/30 02:13:04;;;;;;;19.77;9.07;;;;;;;22.10;75.10;98816.88;5100199;28;20285;-57
2022/08/30 02:15:30;;;;;;;21.05;9.85;;;;;;;22.10;75.27;98811.63;5084695;28;20050;-59
2022/08/30 02:17:56;;;;;;;18.63;9.50;;;;;;;22.06;75.12;98805.75;5071954;28;20048;-57
2022/08/30 02:20:21;;;;;;;16.15;9.25;;;;;;;22.06;75.20;98811.88;5081463;28;20036;-59
2022/08/30 02:22:47;;;;;;;12.50;8.30;;;;;;;22.14;75.08;98805.94;5096198;28;20039;-58
2022/08/30 02:25:13;;;;;;;16.13;9.05;;;;;;;22.06;74.80;98805.75;5101879;28;20321;-57
2022/08/30 02:27:39;;;;;;;11.80;9.23;;;;;;;22.05;74.75;98801.47;5072179;28;20306;-58
2022/08/30 02:30:08;;;;;;;17.60;8.95;;;;;;;21.72;75.14;98759.31;5086689;28;20086;-57
2022/08/30 02:32:34;;;;;;;15.60;8.43;;;;;;;22.00;74.75;98806.25;5074517;28;20083;-58
2022/08/30 02:34:59;;;;;;;15.00;8.95;;;;;;;21.99;74.92;98809.84;5086524;28;20031;-58
2022/08/30 02:37:25;;;;;;;17.15;9.15;;;;;;;21.85;75.61;98819.75;5085218;28;20213;-57
2022/08/30 02:39:50;;;;;;;14.50;8.50;;;;;;;21.84;75.60;98818.06;5087899;28;20186;-57
2022/08/30 02:42:16;;;;;;;17.55;9.18;;;;;;;21.78;75.69;98823.88;5088579;28;20035;-57
2022/08/30 02:44:42;;;;;;;19.52;9.02;;;;;;;21.94;75.44;98827.88;5086480;28;20036;-58
2022/08/30 02:47:08;;;;;;;15.05;8.88;;;;;;;21.94;75.20;98830.50;5099006;28;20024;-58
2022/08/30 02:49:34;;;;;;;19.00;9.30;;;;;;;21.94;75.08;98839.25;5098702;28;20317;-58
2022/08/30 02:52:01;;;;;;;15.18;9.15;;;;;;;21.87;75.42;98833.63;5089363;28;20028;-58
2022/08/30 02:54:27;;;;;;;16.08;8.95;;;;;;;21.82;74.86;98795.44;5104451;28;20348;-59
2022/08/30 02:56:52;;;;;;;13.13;9.00;;;;;;;21.95;75.26;98832.16;5104999;28;20048;-58
2022/08/30 02:59:18;;;;;;;17.52;9.93;;;;;;;21.85;75.46;98824.22;5092145;28;20036;-58
2022/08/30 03:01:44;;;;;;;23.15;9.07;;;;;;;21.82;76.04;98827.94;5086270;28;20032;-57
2022/08/30 03:04:10;;;;;;;17.27;9.63;;;;;;;21.80;75.93;98831.66;5085976;28;20191;-57
2022/08/30 03:06:35;;;;;;;20.17;9.55;;;;;;;21.77;76.05;98830.09;5086177;28;20086;-58
2022/08/30 03:09:01;;;;;;;16.88;8.95;;;;;;;21.73;76.28;98831.31;5086147;28;20020;-58
2022/08/30 03:11:27;;;;;;;15.75;9.43;;;;;;;21.80;75.60;98832.47;5086017;28;20078;-58
2022/08/30 03:13:53;;;;;;;15.82;9.82;;;;;;;21.77;75.81;98831.91;5085934;28;20020;-58
2022/08/30 03:16:20;;;;;;;17.08;9.48;;;;;;;21.76;76.13;98827.59;5091447;28;20236;-58
2022/08/30 03:18:46;;;;;;;16.25;9.82;;;;;;;21.73;75.97;98833.94;5091520;28;20221;-59
2022/08/30 03:21:31;;;;;;;18.05;9.43;;;;;;;21.74;76.14;98838.25;5077784;28;20013;-59
2022/08/30 03:23:56;;;;;;;19.55;10.02;;;;;;;21.69;76.19;98829.88;5103491;28;20100;-57
2022/08/30 03:26:22;;;;;;;15.52;9.75;;;;;;;21.58;77.06;98827.28;5091393;28;20032;-59
2022/08/30 03:28:53;;;;;;;20.33;10.15;;;;;;;21.58;76.74;98829.91;5095062;28;20024;-58
2022/08/30 03:31:19;;;;;;;15.27;10.38;;;;;;;21.65;76.79;98823.22;5100666;28;20055;-58
2022/08/30 03:33:45;;;;;;;17.33;10.80;;;;;;;21.66;76.29;98823.06;5085236;28;20056;-58
2022/08/30 03:36:11;;;;;;;16.13;9.43;;;;;;;21.79;75.97;98830.81;5085319;28;20180;-58
2022/08/30 03:38:37;;;;;;;16.30;9.57;;;;;;;21.86;75.97;98834.63;5084988;28;20025;-59
2022/08/30 03:41:04;;;;;;;21.83;10.45;;;;;;;21.87;75.69;98832.81;5085815;28;20020;-59
2022/08/30 03:43:32;;;;;;;17.42;9.70;;;;;;;21.96;75.29;98823.31;5080915;28;20403;-59
2022/08/30 03:45:59;;;;;;;17.10;10.02;;;;;;;22.00;75.06;98825.56;5085395;28;20090;-59
2022/08/30 03:48:25;;;;;;;15.85;10.57;;;;;;;22.00;75.37;98827.34;5083921;28;20060;-59
2022/08/30 03:50:51;;;;;;;18.27;10.48;;;;;;;22.05;75.18;98831.28;5084743;28;20052;-57
2022/08/30 03:53:17;;;;;;;15.18;10.65;;;;;;;22.03;74.77;98835.00;5084726;28;20078;-58
2022/08/30 03:55:42;;;;;;;19.83;10.23;;;;;;;22.19;74.39;98834.56;5084588;28;20020;-59
2022/08/30 03:58:08;;;;;;;16.58;11.52;;;;;;;22.20;74.01;98829.19;5084872;28;20063;-60
2022/08/30 04:00:34;;;;;;;17.55;10.35;;;;;;;22.38;73.47;98836.53;5082358;28;20483;-59
2022/08/30 04:02:59;;;;;;;19.70;11.18;;;;;;;22.24;74.27;98837.66;5085132;28;20074;-60
2022/08/30 04:05:26;;;;;;;17.27;10.32;;;;;;;22.30;74.10;98841.59;5085056;28;20024;-60
2022/08/30 04:07:52;;;;;;;19.17;11.15;;;;;;;22.35;73.68;98839.44;5084526;28;20016;-62
2022/08/30 04:10:20;;;;;;;17.65;10.75;;;;;;;22.23;73.72;98828.94;5084311;28;20060;-60
2022/08/30 04:12:47;;;;;;;17.83;11.02;;;;;;;22.18;74.54;98825.81;5084682;28;20221;-60
2022/08/30 04:15:13;;;;;;;17.90;11.00;;;;;;;22.18;74.88;98836.38;5084355;28;20031;-60
2022/08/30 04:17:38;;;;;;;23.17;11.45;;;;;;;22.28;74.28;98841.72;5084427;28;20096;-60
2022/08/30 04:20:05;;;;;;;18.33;11.75;;;;;;;22.35;74.04;98842.09;5084032;28;20040;-60
2022/08/30 04:22:30;;;;;;;19.88;11.35;;;;;;;22.51;73.40;98842.44;5081668;28;20181;-59
2022/08/30 04:24:56;;;;;;;18.52;12.10;;;;;;;22.41;73.71;98847.66;5084334;28;20032;-59
2022/08/30 04:27:22;;;;;;;22.50;12.10;;;;;;;22.42;73.75;98853.78;5084132;28;20313;-60
2022/08/30 04:29:48;;;;;;;17.67;11.27;;;;;;;22.45;73.53;98842.97;5084256;28;20025;-60
2022/08/30 04:32:15;;;;;;;23.25;12.45;;;;;;;22.46;73.64;98849.06;5084306;28;20031;-59
2022/08/30 04:34:41;;;;;;;20.42;11.77;;;;;;;22.40;74.15;98845.16;5084182;28;20388;-59
2022/08/30 04:37:07;;;;;;;15.27;12.13;;;;;;;22.39;73.48;98833.78;5075435;28;20024;-59
2022/08/30 04:39:33;;;;;;;17.65;11.48;;;;;;;22.40;74.12;98843.38;5064092;28;20040;-58
2022/08/30 04:41:59;;;;;;;21.17;11.57;;;;;;;22.45;73.53;98842.16;5082715;28;20293;-58
2022/08/30 04:44:26;;;;;;;17.70;12.02;;;;;;;22.51;73.74;98849.53;5084292;28;20348;-58
2022/08/30 04:46:52;;;;;;;22.58;12.35;;;;;;;22.49;73.35;98838.25;5092365;28;20026;-58
2022/08/30 04:49:19;;;;;;;16.85;12.32;;;;;;;22.47;73.36;98841.03;5099598;28;20039;-58
2022/08/30 04:51:44;;;;;;;18.77;12.98;;;;;;;22.54;73.40;98842.19;5083647;28;20020;-58
2022/08/30 04:54:11;;;;;;;19.58;12.57;;;;;;;22.64;73.13;98842.25;5084048;28;20091;-57
2022/08/30 04:56:36;;;;;;;24.00;13.70;;;;;;;22.63;72.53;98832.66;5083693;28;20048;-57
2022/08/30 04:59:03;;;;;;;22.05;13.32;;;;;;;22.63;72.62;98837.94;5083639;28;20032;-58
2022/08/30 05:01:31;;;;;;;24.60;13.43;;;;;;;22.74;72.31;98834.38;5083309;28;20083;-59
2022/08/30 05:03:57;;;;;;;25.50;15.13;;;;;;;22.69;72.33;98844.50;5083753;28;20259;-60
2022/08/30 05:06:26;;;;;;;20.50;14.65;;;;;;;22.69;72.17;98844.50;5091623;28;20059;-60
2022/08/30 05:08:52;;;;;;;23.50;13.80;;;;;;;22.64;72.09;98836.97;5074222;28;20029;-60
2022/08/30 05:11:18;;;;;;;19.80;15.02;;;;;;;22.68;71.95;98848.09;5077618;28;20028;-59
2022/08/30 05:13:44;;;;;;;21.00;14.15;;;;;;;22.73;71.85;98843.25;5091827;28;20024;-59
2022/08/30 05:16:16;;;;;;;24.00;15.02;;;;;;;22.79;71.25;98850.66;5100437;28;20035;-59
2022/08/30 05:18:41;;;;;;;;;;;;;;;22.72;71.24;98852.16;5084108;28;20047;-58
2022/08/30 05:21:16;;;;;;;21.75;15.02;;;;;;;22.73;71.37;98848.53;5083177;28;20197;-60
2022/08/30 05:23:43;;;;;;;23.65;14.38;;;;;;;22.86;71.76;98853.59;5084448;28;20088;-60
2022/08/30 05:26:21;;;;;;;26.27;14.57;;;;;;;22.97;71.50;98857.97;5075641;28;20032;-59
2022/08/30 05:28:47;;;;;;;22.08;14.57;;;;;;;23.04;70.51;98862.56;5080949;28;20095;-62
2022/08/30 05:31:12;;;;;;;23.75;14.55;;;;;;;;;;5087062;28;20099;-62
2022/08/30 05:33:38;;;;;;;21.63;14.75;;;;;;;23.04;70.71;98853.81;5097020;28;20078;-62
2022/08/30 05:36:07;;;;;;;19.55;14.82;;;;;;;23.10;69.94;98848.00;5083114;28;20054;-62
2022/08/30 05:38:33;;;;;;;23.42;14.75;;;;;;;23.17;69.97;98849.16;5083133;28;20024;-62
2022/08/30 05:40:58;;;;;;;22.27;15.02;;;;;;;23.16;69.48;98857.22;5085223;28;20094;-61
2022/08/30 05:43:24;;;;;;;24.13;15.05;;;;;;;23.31;69.23;98855.06;5082229;28;20278;-60
2022/08/30 05:45:58;;;;;;;21.77;14.98;;;;;;;23.30;68.54;98848.09;5073465;28;20103;-61
2022/08/30 05:48:24;;;;;;;23.67;14.18;;;;;;;23.43;68.29;98860.09;5083265;28;20052;-60
2022/08/30 05:50:49;;;;;;;22.25;15.63;;;;;;;23.45;67.46;98862.59;5083421;28;20312;-60
2022/08/30 05:53:15;;;;;;;23.20;14.63;;;;;;;23.42;67.60;98855.75;5082298;28;20324;-62
2022/08/30 05:55:41;;;;;;;24.55;16.25;;;;;;;23.44;67.51;98858.28;5082848;28;20035;-62
2022/08/30 05:58:06;;;;;;;20.80;15.20;;;;;;;23.44;67.76;98860.91;5080715;28;20135;-63
2022/08/30 06:00:35;;;;;;;25.52;15.02;;;;;;;23.55;67.17;98852.88;5081569;28;20028;-63
2022/08/30 06:03:01;;;;;;;23.00;15.18;;;;;;;23.70;66.94;98865.69;5082347;28;20062;-63
2022/08/30 06:05:27;;;;;;;24.17;15.70;;;;;;;23.70;66.51;98855.97;5082055;28;20021;-61
2022/08/30 06:07:53;;;;;;;25.30;15.38;;;;;;;23.76;66.70;98867.81;5091513;28;20024;-61
2022/08/30 06:10:19;;;;;;;26.50;15.32;;;;;;;23.83;65.91;98857.50;5103185;28;20058;-62
2022/08/30 06:12:44;;;;;;;18.42;14.48;;;;;;;23.90;65.72;98867.44;5103258;28;20243;-63
2022/08/30 06:15:10;;;;;;;23.50;15.13;;;;;;;23.94;65.30;98868.81;5082239;28;20317;-60
2022/08/30 06:17:38;;;;;;;25.48;15.05;;;;;;;23.98;65.35;98868.53;5082706;28;20032;-64
2022/08/30 06:20:04;;;;;;;26.00;15.77;;;;;;;24.07;64.59;98872.97;5082738;28;20028;-64
2022/08/30 06:22:30;;;;;;;26.10;15.43;;;;;;;24.09;64.47;98873.69;5081539;28;20024;-62
2022/08/30 06:24:56;;;;;;;24.17;16.40;;;;;;;24.12;64.16;98866.28;5082060;28;20024;-63
2022/08/30 06:27:21;;;;;;;21.98;14.82;;;;;;;24.13;64.06;98872.44;5082008;28;20314;-63
2022/08/30 06:29:50;;;;;;;25.25;16.00;;;;;;;24.17;64.17;98878.28;5081976;28;20021;-63
2022/08/30 06:32:16;;;;;;;22.50;16.33;;;;;;;24.19;64.13;98873.69;5082007;28;20385;-63
2022/08/30 06:34:41;;;;;;;23.08;16.98;;;;;;;24.12;64.21;98871.59;5089425;28;20028;-64
2022/08/30 06:37:07;;;;;;;24.83;16.70;;;;;;;24.11;63.43;98871.72;5098802;28;20023;-63
2022/08/30 06:39:32;;;;;;;20.75;15.30;;;;;;;24.13;63.85;98869.78;5082395;28;20280;-64
2022/08/30 06:41:58;;;;;;;25.63;15.90;;;;;;;24.23;63.36;98862.69;5094492;28;20029;-64
2022/08/30 06:44:24;;;;;;;32.10;16.15;;;;;;;24.29;63.44;98864.75;5082834;28;20024;-63
2022/08/30 06:46:49;;;;;;;24.77;15.80;;;;;;;24.42;63.32;98876.88;5082581;28;20339;-65
2022/08/30 06:49:16;;;;;;;46.25;18.10;;;;;;;24.46;63.28;98870.31;5082645;28;20021;-64
2022/08/30 06:51:41;;;;;;;31.33;16.27;;;;;;;24.56;63.09;98883.53;5082203;28;20025;-64
2022/08/30 06:54:08;;;;;;;28.80;17.40;;;;;;;24.61;63.15;98884.81;5082647;28;20059;-63
2022/08/30 06:56:34;;;;;;;24.95;15.35;;;;;;;24.68;62.42;98885.06;5082173;28;20055;-63
2022/08/30 06:59:00;;;;;;;24.42;16.80;;;;;;;24.75;62.05;98872.06;5083180;28;20028;-64
2022/08/30 07:01:27;;;;;;;25.00;16.90;;;;;;;24.79;61.10;98881.41;5090827;28;20023;-62
2022/08/30 07:03:54;;;;;;;37.13;18.60;;;;;;;24.91;61.00;98871.47;5076121;28;20032;-63
2022/08/30 07:06:21;;;;;;;28.60;18.15;;;;;;;24.81;61.53;98877.66;5088465;28;20217;-64
2022/08/30 07:08:49;;;;;;;23.38;16.85;;;;;;;25.02;60.91;98879.22;5085037;28;20278;-65
2022/08/30 07:11:24;;;;;;;24.98;16.88;;;;;;;24.80;61.29;98852.13;5082117;28;20142;-62
2022/08/30 07:13:50;;;;;;;24.80;17.40;;;;;;;25.05;60.94;98880.75;5085421;28;20091;-61
2022/08/30 07:16:15;;;;;;;25.95;17.20;;;;;;;25.15;60.46;98879.75;5085525;28;20099;-63
2022/08/30 07:18:50;;;;;;;28.35;17.73;;;;;;;25.22;59.78;98873.84;5085701;28;20317;-62
2022/08/30 07:21:23;;;;;;;27.98;16.58;;;;;;;25.28;60.03;98879.41;5085846;28;20028;-63
2022/08/30 07:23:49;;;;;;;35.20;18.80;;;;;;;25.12;58.90;98864.13;5101951;28;20020;-63
2022/08/30 07:26:17;;;;;;;89.63;21.27;;;;;;;25.33;59.12;98871.84;5094341;28;20028;-63
2022/08/30 07:28:45;;;;;;;33.72;19.73;;;;;;;25.22;58.99;98832.28;5084491;28;20070;-63
2022/08/30 07:31:15;;;;;;;22.05;15.85;;;;;;;25.50;58.73;98864.94;5085615;28;20032;-61
2022/08/30 07:33:41;;;;;;;26.20;17.88;;;;;;;25.45;58.35;98863.72;5085312;28;20034;-61
2022/08/30 07:36:07;;;;;;;21.45;16.05;;;;;;;25.50;58.43;98877.38;5085321;28;20367;-62
2022/08/30 07:38:33;;;;;;;22.13;17.02;;;;;;;25.51;58.16;98879.03;5085933;28;20031;-62
2022/08/30 07:41:00;;;;;;;20.20;15.80;;;;;;;25.42;57.44;98867.47;5085668;28;20025;-63
2022/08/30 07:43:30;;;;;;;19.13;14.48;;;;;;;25.48;57.86;98872.22;5085480;28;20028;-62
2022/08/30 07:46:00;;;;;;;26.45;16.35;;;;;;;25.38;57.97;98867.94;5085339;28;20024;-64
2022/08/30 07:48:26;;;;;;;27.30;15.18;;;;;;;25.49;58.01;98881.81;5085726;28;20036;-63
2022/08/30 07:50:52;;;;;;;24.05;15.30;;;;;;;25.53;57.62;98882.38;5087228;28;20043;-60
2022/08/30 07:53:17;;;;;;;32.88;17.42;;;;;;;25.50;57.79;98874.72;5096793;28;20031;-61
2022/08/30 07:55:43;;;;;;;23.98;15.00;;;;;;;25.59;57.65;98881.75;5092748;28;20040;-62
2022/08/30 07:58:08;;;;;;;17.85;14.85;;;;;;;25.74;57.52;98883.88;5085417;28;20048;-62
2022/08/30 08:00:34;;;;;;;22.02;15.68;;;;;;;25.85;57.11;98878.38;5083570;28;20031;-59
2022/08/30 08:03:07;;;;;;;22.35;15.15;;;;;;;25.86;57.02;98876.56;5102798;28;20020;-59
2022/08/30 08:05:41;;;;;;;27.65;15.82;;;;;;;25.90;56.89;98892.03;5091621;28;20113;-59
2022/08/30 08:08:07;;;;;;;25.67;14.60;;;;;;;25.90;56.90;98876.09;5085200;28;20016;-60
2022/08/30 08:10:34;;;;;;;23.17;14.65;;;;;;;25.97;56.27;98879.81;5089168;28;20020;-59
2022/08/30 08:13:00;;;;;;;25.08;15.57;;;;;;;26.01;56.19;98878.56;5104991;28;20095;-60
2022/08/30 08:15:27;;;;;;;21.60;14.95;;;;;;;26.07;56.51;98877.13;5105073;28;20094;-59
2022/08/30 08:17:52;;;;;;;18.13;14.45;;;;;;;26.03;55.64;98883.72;5088512;28;20025;-58
2022/08/30 08:20:18;;;;;;;26.63;15.57;;;;;;;26.05;55.39;98879.06;5084045;28;20047;-58
2022/08/30 08:22:44;;;;;;;20.98;14.63;;;;;;;26.07;55.65;98863.84;5091220;28;20054;-60
2022/08/30 08:25:09;;;;;;;26.27;15.38;;;;;;;26.15;54.66;98876.34;5099954;28;20033;-59
2022/08/30 08:27:36;;;;;;;23.90;15.38;;;;;;;26.18;54.70;98868.06;5065664;28;20035;-59
2022/08/30 08:30:03;;;;;;;21.55;15.40;;;;;;;26.21;55.04;98870.44;5084345;28;20028;-58
2022/08/30 08:32:29;;;;;;;22.88;15.73;;;;;;;26.39;55.21;98875.72;5103521;28;20047;-60
2022/08/30 08:34:55;;;;;;;21.42;13.82;;;;;;;26.48;54.26;98873.94;5095705;28;20240;-60
2022/08/30 08:37:20;;;;;;;20.20;14.30;;;;;;;26.41;54.86;98867.59;5087618;28;20020;-60
2022/08/30 08:39:46;;;;;;;23.42;15.68;;;;;;;26.35;54.21;98867.22;5096646;28;20089;-59
2022/08/30 08:42:19;;;;;;;24.58;15.07;;;;;;;26.65;53.58;98873.09;5092298;28;20029;-59
2022/08/30 08:44:55;;;;;;;19.42;14.63;;;;;;;26.82;52.65;98874.03;5084305;28;20034;-59
2022/08/30 08:47:52;;;;;;;24.17;14.80;;;;;;;26.85;52.23;98873.72;5086153;28;20032;-59
2022/08/30 08:50:20;;;;;;;19.48;13.93;;;;;;;26.74;50.96;98828.81;5079718;28;20048;-59
2022/08/30 08:55:51;;;;;;;27.67;14.35;;;;;;;27.48;50.93;98869.03;5091496;28;20206;-60
2022/08/30 08:58:27;;;;;;;22.88;14.43;;;;;;;27.35;48.86;98884.63;5083820;28;20040;-59
2022/08/30 09:00:55;;;;;;;20.73;14.52;;;;;;;27.49;50.16;98880.47;5083834;28;20352;-59
2022/08/30 09:03:23;;;;;;;21.63;13.48;;;;;;;27.52;49.84;98838.44;5100467;28;20051;-60
2022/08/30 09:05:49;;;;;;;16.92;13.38;;;;;;;27.67;48.92;98878.53;5083773;28;20031;-59
2022/08/30 09:08:18;;;;;;;17.80;13.25;;;;;;;27.57;48.92;98845.94;5087664;28;20032;-61
2022/08/30 09:10:55;;;;;;;20.80;14.05;;;;;;;27.82;49.94;98884.06;5083984;28;20035;-60
2022/08/30 09:13:23;;;;;;;18.35;13.75;;;;;;;27.77;49.44;98856.28;5084234;28;20025;-60
2022/08/30 09:15:50;;;;;;;18.88;13.90;;;;;;;27.94;49.06;98884.56;5083567;28;20032;-60
2022/08/30 09:18:17;;;;;;;17.30;12.75;;;;;;;27.96;48.36;98874.63;5083728;28;20024;-60
2022/08/30 09:20:50;;;;;;;19.13;12.70;;;;;;;28.06;48.33;98882.44;5083126;28;20020;-60
2022/08/30 09:23:15;;;;;;;23.70;13.88;;;;;;;28.08;48.48;98891.13;5081672;28;20020;-59
2022/08/30 09:26:04;;;;;;;19.60;13.15;;;;;;;28.10;48.15;98889.09;5089391;28;20099;-60
2022/08/30 09:28:46;;;;;;;19.42;13.02;;;;;;;28.00;47.93;98877.78;5099446;28;20024;-59
2022/08/30 09:31:27;;;;;;;18.40;12.15;;;;;;;28.02;47.87;98866.00;5085319;28;20091;-59
2022/08/30 09:34:02;;;;;;;21.77;14.43;;;;;;;27.99;48.40;98890.28;5103850;28;20030;-60
2022/08/30 09:36:33;;;;;;;17.88;12.65;;;;;;;27.87;47.03;98859.63;5081010;28;20032;-60
2022/08/30 09:39:01;;;;;;;21.52;14.65;;;;;;;28.15;48.61;98899.28;5083002;28;20035;-61
2022/08/30 09:41:41;;;;;;;18.40;13.88;;;;;;;27.67;47.40;98861.75;5082751;28;20087;-60
2022/08/30 09:44:13;;;;;;;23.98;14.68;;;;;;;27.84;48.28;98911.34;5083217;28;20036;-59
2022/08/30 09:46:43;;;;;;;;;;;;;;;27.89;48.16;98898.38;5085867;28;20047;-59
2022/08/30 09:49:30;;;;;;;16.77;13.82;;;;;;;27.85;47.66;98904.22;5084152;28;19908;-59
2022/08/30 09:52:08;;;;;;;25.48;14.65;;;;;;;27.88;47.67;98906.53;5093302;28;20029;-59
2022/08/30 09:54:47;;;;;;;20.65;13.02;;;;;;;27.72;47.57;98860.25;5065977;28;20020;-59
2022/08/30 09:57:56;;;;;;;20.10;13.23;;;;;;;27.83;46.78;98877.72;5084039;28;20119;-59
2022/08/30 10:00:30;;;;;;;19.42;13.23;;;;;;;28.00;47.78;98897.25;5083103;28;20036;-59
2022/08/30 10:03:38;;;;;;;18.58;13.82;;;;;;;28.06;47.48;98887.78;5083216;28;20082;-59
2022/08/30 10:06:25;;;;;;;20.55;14.00;;;;;;;27.89;47.64;98892.22;5079325;28;20029;-59
2022/08/30 10:09:02;;;;;;;25.60;14.23;;;;;;;27.67;45.94;98881.19;5081314;28;20085;-59
2022/08/30 10:11:28;;;;;;;19.55;13.50;;;;;;;27.84;47.11;98884.72;5080877;28;20305;-60
2022/08/30 10:14:12;;;;;;;22.10;13.10;;;;;;;27.99;47.10;98884.97;5081098;28;20040;-59
2022/08/30 10:16:44;;;;;;;19.08;12.68;;;;;;;27.98;46.71;98890.41;5082123;28;20016;-59
2022/08/30 10:19:38;;;;;;;22.00;13.07;;;;;;;27.79;46.23;98889.72;5082875;28;20048;-59
2022/08/30 10:22:14;;;;;;;16.27;12.05;;;;;;;27.79;46.16;98878.22;5081708;28;20085;-58
2022/08/30 10:25:01;;;;;;;22.77;12.65;;;;;;;27.89;47.01;98886.88;5080105;28;20060;-59
2022/08/30 10:27:36;;;;;;;16.15;12.25;;;;;;;27.78;46.69;98877.41;5082576;28;20027;-60
2022/08/30 10:30:09;;;;;;;16.23;12.68;;;;;;;27.65;46.01;98867.25;5082616;28;20024;-60
2022/08/30 10:32:48;;;;;;;16.23;12.43;;;;;;;27.75;46.26;98860.91;5080164;28;20032;-60
2022/08/30 10:35:26;;;;;;;20.67;12.50;;;;;;;28.00;45.83;98889.25;5081841;28;20035;-59
2022/08/30 10:38:19;;;;;;;27.08;13.05;;;;;;;27.87;46.36;98897.69;5083623;28;20239;-59
2022/08/30 10:43:53;;;;;;;21.50;12.60;;;;;;;27.94;44.63;98892.56;5086399;28;20095;-60
2022/08/30 10:46:32;;;;;;;41.88;13.25;;;;;;;27.98;45.00;98866.47;5086799;28;20096;-60
2022/08/30 10:49:01;;;;;;;39.67;13.77;;;;;;;27.88;45.35;98863.94;5085127;28;20036;-60
2022/08/30 10:51:45;;;;;;;37.88;13.95;;;;;;;28.05;44.72;98891.44;5086235;28;20040;-60
2022/08/30 10:54:18;;;;;;;37.90;14.43;;;;;;;27.90;45.62;98893.88;5108743;28;20024;-60
2022/08/30 10:56:46;;;;;;;22.85;12.07;;;;;;;27.99;44.75;98886.75;5086063;28;20104;-60
2022/08/30 10:59:15;;;;;;;167.48;24.48;;;;;;;27.59;44.75;98822.66;5086220;28;20052;-60
2022/08/30 11:01:41;;;;;;;43.83;14.77;;;;;;;28.07;44.37;98884.94;5087498;28;20074;-60
2022/08/30 11:04:31;;;;;;;43.50;14.98;;;;;;;28.15;44.15;98885.97;5085606;28;20344;-61
2022/08/30 11:07:34;;;;;;;41.90;14.60;;;;;;;27.95;43.72;98851.66;5096029;28;20089;-58
2022/08/30 11:10:10;;;;;;;30.30;12.52;;;;;;;28.25;44.57;98886.63;5077695;28;20032;-60
2022/08/30 11:12:58;;;;;;;19.48;12.32;;;;;;;28.30;43.86;98884.28;5086138;28;20052;-59
2022/08/30 11:15:31;;;;;;;21.52;13.02;;;;;;;28.24;44.19;98887.63;5105508;28;20118;-62
2022/08/30 11:18:11;;;;;;;19.50;12.27;;;;;;;28.31;44.15;98883.28;5106309;28;20088;-64
2022/08/30 11:20:42;;;;;;;162.25;25.98;;;;;;;28.22;44.83;98842.50;5093305;28;20026;-63
2022/08/30 11:23:28;;;;;;;23.10;15.15;;;;;;;28.38;44.49;98872.81;5094589;28;20283;-62
2022/08/30 11:26:34;;;;;;;19.65;13.07;;;;;;;28.55;43.50;98873.63;5099194;28;20040;-64
2022/08/30 11:29:02;;;;;;;18.25;13.23;;;;;;;28.60;43.98;98871.25;5085338;28;20028;-64
2022/08/30 11:31:54;;;;;;;20.63;13.52;;;;;;;28.63;42.88;98868.28;5085442;28;20025;-64
2022/08/30 11:34:45;;;;;;;17.65;12.23;;;;;;;28.74;42.08;98875.91;5085588;28;20344;-64
2022/08/30 11:37:35;;;;;;;20.00;13.60;;;;;;;28.55;43.00;98828.31;5093480;28;20028;-63
2022/08/30 11:40:19;;;;;;;15.73;12.90;;;;;;;28.81;42.27;98883.25;5085539;28;20096;-62